Time;durP1;ratioP1;P1;durP2;ratioP2;P2;SDS_P1;SDS_P2;PMS_P1;PMS_P2;Temp;Humidity;BMP_temperature;BMP_pressure;BME280_temperature;BME280_humidity;BME280_pressure;Samples;Min_cycle;Max_cycle;Signal;HPM_P1;HPM_P2
2023/04/17 00:01:02;;;;;;;;;;;;;;;8.68;nan;101053.56;5035839;28;19921;-84
2023/04/17 00:03:30;;;;;;;;;;;;;;;8.66;nan;101063.41;5031394;28;19929;-84
2023/04/17 00:05:55;;;;;;;;;;;;;;;8.66;nan;101064.22;5033321;28;19924;-85
2023/04/17 00:08:20;;;;;;;;;;;;;;;8.67;nan;101065.91;5032957;28;19917;-84
2023/04/17 00:10:46;;;;;;;;;;;;;;;8.67;nan;101065.06;5037616;28;19980;-85
2023/04/17 00:13:11;;;;;;;;;;;;;;;8.64;nan;101066.16;5040705;28;19963;-81
2023/04/17 00:15:36;;;;;;;;;;;;;;;8.66;nan;101058.13;5035609;28;19938;-82
2023/04/17 00:18:01;;;;;;;;;;;;;;;8.62;nan;101062.81;5038467;28;19925;-85
2023/04/17 00:20:26;;;;;;;;;;;;;;;8.62;nan;101057.53;5035419;28;19927;-85
2023/04/17 00:22:52;;;;;;;;;;;;;;;8.62;nan;101057.53;5018148;28;20286;-82
2023/04/17 00:25:17;;;;;;;;;;;;;;;8.65;nan;101049.38;5031857;28;19917;-83
2023/04/17 00:27:42;;;;;;;;;;;;;;;8.63;nan;101055.75;5018663;28;19923;-82
2023/04/17 00:30:08;;;;;;;;;;;;;;;8.63;nan;101045.22;5020688;28;19924;-83
2023/04/17 00:32:33;;;;;;;;;;;;;;;8.62;nan;101056.69;5024782;28;19917;-83
2023/04/17 00:34:58;;;;;;;;;;;;;;;8.61;nan;101045.31;5014421;28;19925;-82
2023/04/17 00:37:23;;;;;;;;;;;;;;;8.63;nan;101055.75;5031077;28;19928;-82
2023/04/17 00:39:48;;;;;;;;;;;;;;;8.62;nan;101049.63;5036274;28;19917;-82
2023/04/17 00:42:14;;;;;;;;;;;;;;;8.62;nan;101057.53;5021759;28;19932;-83
2023/04/17 00:44:39;;;;;;;;;;;;;;;8.59;nan;101049.06;5030446;28;20429;-83
2023/04/17 00:47:04;;;;;;;;;;;;;;;8.51;nan;101049.69;5023987;28;19916;-82
2023/04/17 00:49:29;;;;;;;;;;;;;;;8.47;nan;101049.09;5038520;28;19917;-82
2023/04/17 00:51:55;;;;;;;;;;;;;;;8.43;nan;101049.47;5022915;28;20313;-83
2023/04/17 00:54:21;;;;;;;;;;;;;;;8.38;nan;101048.97;5025101;28;19929;-82
2023/04/17 00:56:47;;;;;;;;;;;;;;;8.34;nan;101055.44;5035525;28;20271;-82
2023/04/17 00:59:15;;;;;;;;;;;;;;;8.33;nan;101048.50;5016628;28;19921;-83
2023/04/17 01:01:40;;;;;;;;;;;;;;;8.30;nan;101037.25;5020419;28;20000;-82
2023/04/17 01:04:06;;;;;;;;;;;;;;;8.22;nan;101037.06;5030297;28;19956;-82
2023/04/17 01:06:32;;;;;;;;;;;;;;;8.22;nan;101042.31;5027819;28;19932;-83
2023/04/17 01:08:57;;;;;;;;;;;;;;;8.21;nan;101048.53;5033470;28;19917;-82
2023/04/17 01:11:22;;;;;;;;;;;;;;;8.21;nan;101048.53;5034391;28;19925;-82
2023/04/17 01:13:51;;;;;;;;;;;;;;;8.23;nan;101043.16;5029607;28;20043;-83
2023/04/17 01:16:16;;;;;;;;;;;;;;;8.24;nan;101047.44;5028500;28;20012;-82
2023/04/17 01:18:45;;;;;;;;;;;;;;;8.22;nan;101037.06;5030210;28;19931;-82
2023/04/17 01:21:10;;;;;;;;;;;;;;;8.17;nan;101036.56;5031465;28;19917;-82
2023/04/17 01:23:56;;;;;;;;;;;;;;;8.17;nan;101036.56;5014497;28;20394;-81
2023/04/17 01:26:22;;;;;;;;;;;;;;;8.13;nan;101044.81;5026187;28;19944;-82
2023/04/17 01:28:57;;;;;;;;;;;;;;;8.09;nan;101044.25;5027101;28;19917;-82
2023/04/17 01:31:23;;;;;;;;;;;;;;;8.09;nan;101046.88;5030030;28;19921;-83
2023/04/17 01:33:48;;;;;;;;;;;;;;;8.09;nan;101047.72;5036429;28;19939;-84
2023/04/17 01:36:13;;;;;;;;;;;;;;;8.11;nan;101050.25;5018044;28;19947;-83
2023/04/17 01:38:39;;;;;;;;;;;;;;;8.13;nan;101047.47;5017209;28;19917;-83
2023/04/17 01:41:08;;;;;;;;;;;;;;;8.11;nan;101047.59;5036940;28;20069;-83
2023/04/17 01:43:37;;;;;;;;;;;;;;;8.11;nan;101047.59;5034298;28;20012;-83
2023/04/17 01:46:02;;;;;;;;;;;;;;;8.07;nan;101052.25;5029837;28;19921;-83
2023/04/17 01:48:27;;;;;;;;;;;;;;;8.04;nan;101052.53;5017264;28;20521;-83
2023/04/17 01:50:52;;;;;;;;;;;;;;;8.05;nan;101048.91;5036397;28;19917;-83
2023/04/17 01:53:17;;;;;;;;;;;;;;;8.07;nan;101052.25;5030153;28;19924;-82
2023/04/17 01:55:43;;;;;;;;;;;;;;;8.06;nan;101050.59;5029852;28;19917;-82
2023/04/17 01:58:08;;;;;;;;;;;;;;;8.06;nan;101055.88;5037018;28;19970;-82
2023/04/17 02:00:33;;;;;;;;;;;;;;;8.06;nan;101055.03;5029875;28;19920;-83
2023/04/17 02:02:58;;;;;;;;;;;;;;;8.06;nan;101050.59;5018385;28;19917;-85
2023/04/17 02:05:23;;;;;;;;;;;;;;;8.07;nan;101038.25;5029678;28;19931;-83
2023/04/17 02:07:50;;;;;;;;;;;;;;;8.06;nan;101053.25;5030639;28;19971;-82
2023/04/17 02:10:15;;;;;;;;;;;;;;;8.04;nan;101049.88;5030102;28;20374;-82
2023/04/17 02:12:40;;;;;;;;;;;;;;;8.02;nan;101054.44;5036458;28;19917;-82
2023/04/17 02:15:06;;;;;;;;;;;;;;;8.02;nan;101051.81;5036281;28;19917;-82
2023/04/17 02:17:31;;;;;;;;;;;;;;;8.04;nan;101051.69;5033862;28;20024;-82
2023/04/17 02:19:56;;;;;;;;;;;;;;;7.98;nan;101052.16;5028254;28;20012;-83
2023/04/17 02:22:21;;;;;;;;;;;;;;;7.95;nan;101047.16;5027778;28;20527;-83
2023/04/17 02:24:46;;;;;;;;;;;;;;;7.91;nan;101049.19;5022895;28;19924;-83
2023/04/17 02:27:12;;;;;;;;;;;;;;;7.89;nan;101051.13;5029771;28;19921;-83
2023/04/17 02:29:37;;;;;;;;;;;;;;;7.88;nan;101044.16;5019666;28;20056;-83
2023/04/17 02:32:02;;;;;;;;;;;;;;;7.86;nan;101051.34;5033449;28;19968;-82
2023/04/17 02:34:27;;;;;;;;;;;;;;;7.85;nan;101049.69;5018019;28;19917;-83
2023/04/17 02:36:52;;;;;;;;;;;;;;;7.80;nan;101052.66;5033634;28;19928;-83
2023/04/17 02:39:17;;;;;;;;;;;;;;;7.78;nan;101041.41;5032936;28;20488;-83
2023/04/17 02:41:43;;;;;;;;;;;;;;;7.74;nan;101044.41;5034025;28;20320;-83
2023/04/17 02:44:08;;;;;;;;;;;;;;;7.72;nan;101047.16;5027987;28;19917;-83
2023/04/17 02:46:33;;;;;;;;;;;;;;;7.67;nan;101049.31;5013799;28;20358;-82
2023/04/17 02:48:58;;;;;;;;;;;;;;;7.67;nan;101057.22;5014862;28;19924;-83
2023/04/17 02:51:23;;;;;;;;;;;;;;;7.63;nan;101046.09;5030652;28;20285;-83
2023/04/17 02:53:48;;;;;;;;;;;;;;;7.59;nan;101047.28;5034408;28;19926;-82
2023/04/17 02:56:14;;;;;;;;;;;;;;;7.56;nan;101057.22;5032848;28;19929;-83
2023/04/17 02:58:39;;;;;;;;;;;;;;;7.57;nan;101056.25;5032091;28;19917;-82
2023/04/17 03:01:04;;;;;;;;;;;;;;;7.52;nan;101050.53;5040072;28;19924;-82
2023/04/17 03:03:33;;;;;;;;;;;;;;;7.53;nan;101050.41;5021631;28;19949;-83
2023/04/17 03:05:58;;;;;;;;;;;;;;;7.48;nan;101046.44;5022804;28;20384;-83
2023/04/17 03:08:23;;;;;;;;;;;;;;;7.44;nan;101049.31;5037517;28;19923;-82
2023/04/17 03:10:49;;;;;;;;;;;;;;;7.36;nan;101046.44;5038196;28;19917;-83
2023/04/17 03:13:14;;;;;;;;;;;;;;;7.30;nan;101043.47;5033627;28;19925;-83
2023/04/17 03:15:39;;;;;;;;;;;;;;;7.20;nan;101040.69;5022853;28;19917;-83
2023/04/17 03:18:04;;;;;;;;;;;;;;;7.10;nan;101044.97;5038154;28;19913;-83
2023/04/17 03:20:30;;;;;;;;;;;;;;;7.01;nan;101042.09;5036280;28;19976;-82
2023/04/17 03:22:55;;;;;;;;;;;;;;;6.97;nan;101045.06;5025515;28;20000;-83
2023/04/17 03:25:20;;;;;;;;;;;;;;;6.90;nan;101049.94;5035673;28;19917;-82
2023/04/17 03:27:45;;;;;;;;;;;;;;;6.87;nan;101051.97;5039542;28;20366;-83
2023/04/17 03:30:11;;;;;;;;;;;;;;;6.84;nan;101039.91;5019760;28;20389;-83
2023/04/17 03:32:36;;;;;;;;;;;;;;;6.78;nan;101048.22;5036726;28;20092;-82
2023/04/17 03:35:02;;;;;;;;;;;;;;;6.72;nan;101051.31;5035493;28;19928;-82
2023/04/17 03:37:27;;;;;;;;;;;;;;;6.69;nan;101052.38;5024718;28;19921;-82
2023/04/17 03:39:54;;;;;;;;;;;;;;;6.64;nan;101048.41;5022591;28;19918;-81
2023/04/17 03:42:19;;;;;;;;;;;;;;;6.55;nan;101048.16;5018397;28;19917;-83
2023/04/17 03:44:45;;;;;;;;;;;;;;;6.49;nan;101047.75;5036653;28;19975;-83
2023/04/17 03:47:10;;;;;;;;;;;;;;;6.46;nan;101048.81;5037127;28;19939;-83
2023/04/17 03:49:35;;;;;;;;;;;;;;;6.48;nan;101046.06;5037649;28;19923;-82
2023/04/17 03:52:02;;;;;;;;;;;;;;;6.50;nan;101049.44;5035523;28;20000;-83
2023/04/17 03:54:28;;;;;;;;;;;;;;;6.49;nan;101053.84;5031574;28;19959;-83
2023/04/17 03:56:54;;;;;;;;;;;;;;;6.45;nan;101043.69;5033173;28;19944;-83
2023/04/17 03:59:19;;;;;;;;;;;;;;;6.45;nan;101048.94;5017284;28;19921;-82
2023/04/17 04:01:45;;;;;;;;;;;;;;;6.44;nan;101055.97;5028809;28;19959;-82
2023/04/17 04:04:10;;;;;;;;;;;;;;;6.39;nan;101050.22;5023194;28;20374;-83
2023/04/17 04:06:38;;;;;;;;;;;;;;;6.39;nan;101060.75;5032917;28;20368;-83
2023/04/17 04:09:03;;;;;;;;;;;;;;;6.43;nan;101064.78;5031172;28;19917;-83
2023/04/17 04:11:28;;;;;;;;;;;;;;;6.42;nan;101059.66;5037763;28;19923;-83
2023/04/17 04:13:54;;;;;;;;;;;;;;;6.42;nan;101064.94;5044612;28;20414;-82
2023/04/17 04:16:19;;;;;;;;;;;;;;;6.42;nan;101055.25;5034306;28;19949;-82
2023/04/17 04:18:44;;;;;;;;;;;;;;;6.43;nan;101058.72;5035749;28;19944;-83
2023/04/17 04:21:10;;;;;;;;;;;;;;;6.49;nan;101063.53;5035256;28;19921;-82
2023/04/17 04:23:39;;;;;;;;;;;;;;;6.53;nan;101068.44;5022532;28;19939;-82
2023/04/17 04:26:04;;;;;;;;;;;;;;;6.55;nan;101068.31;5015128;28;20379;-82
2023/04/17 04:28:29;;;;;;;;;;;;;;;6.57;nan;101072.50;5027741;28;19925;-82
2023/04/17 04:30:57;;;;;;;;;;;;;;;6.59;nan;101065.34;5018649;28;19916;-81
2023/04/17 04:33:23;;;;;;;;;;;;;;;6.64;nan;101080.78;5032987;28;20280;-83
2023/04/17 04:35:50;;;;;;;;;;;;;;;6.71;nan;101081.19;5031126;28;19923;-81
2023/04/17 04:38:15;;;;;;;;;;;;;;;6.80;nan;101085.75;5031350;28;19917;-82
2023/04/17 04:40:51;;;;;;;;;;;;;;;6.86;nan;101085.28;5021212;28;19924;-81
2023/04/17 04:43:16;;;;;;;;;;;;;;;6.91;nan;101080.56;5033771;28;19967;-82
2023/04/17 04:45:42;;;;;;;;;;;;;;;6.97;nan;101079.25;5032626;28;20352;-82
2023/04/17 04:48:07;;;;;;;;;;;;;;;7.01;nan;101081.53;5041286;28;19917;-82
2023/04/17 04:50:32;;;;;;;;;;;;;;;7.04;nan;101087.50;5035632;28;19917;-83
2023/04/17 04:52:57;;;;;;;;;;;;;;;7.10;nan;101082.59;5024521;28;19948;-83
2023/04/17 04:55:23;;;;;;;;;;;;;;;7.13;nan;101084.19;5015646;28;19921;-83
2023/04/17 04:57:48;;;;;;;;;;;;;;;7.18;nan;101084.69;5031879;28;20012;-83
2023/04/17 05:00:13;;;;;;;;;;;;;;;7.23;nan;101085.16;5022542;28;20013;-83
2023/04/17 05:02:39;;;;;;;;;;;;;;;7.26;nan;101089.34;5029662;28;19917;-82
2023/04/17 05:05:05;;;;;;;;;;;;;;;7.30;nan;101089.00;5029663;28;20000;-82
2023/04/17 05:07:30;;;;;;;;;;;;;;;7.33;nan;101093.19;5028605;28;20426;-82
2023/04/17 05:09:55;;;;;;;;;;;;;;;7.33;nan;101094.03;5032363;28;19917;-82
2023/04/17 05:12:20;;;;;;;;;;;;;;;7.38;nan;101098.94;5027949;28;19917;-82
2023/04/17 05:14:46;;;;;;;;;;;;;;;7.40;nan;101097.03;5008787;28;19917;-83
2023/04/17 05:17:12;;;;;;;;;;;;;;;7.46;nan;101101.84;5037106;28;20832;-83
2023/04/17 05:19:37;;;;;;;;;;;;;;;7.48;nan;101099.91;5034468;28;19994;-82
2023/04/17 05:22:02;;;;;;;;;;;;;;;7.50;nan;101099.78;5017183;28;19964;-82
2023/04/17 05:24:27;;;;;;;;;;;;;;;7.54;nan;101098.63;5019119;28;19932;-82
2023/04/17 05:26:52;;;;;;;;;;;;;;;7.55;nan;101105.53;5034298;28;19917;-82
2023/04/17 05:29:17;;;;;;;;;;;;;;;7.54;nan;101096.81;5035553;28;19925;-82
2023/04/17 05:31:43;;;;;;;;;;;;;;;7.48;nan;101104.34;5035631;28;19923;-82
2023/04/17 05:34:08;;;;;;;;;;;;;;;7.46;nan;101104.47;5036066;28;19917;-82
2023/04/17 05:36:33;;;;;;;;;;;;;;;7.51;nan;101096.19;5014349;28;19925;-83
2023/04/17 05:38:58;;;;;;;;;;;;;;;7.56;nan;101101.97;5032709;28;19917;-82
2023/04/17 05:41:25;;;;;;;;;;;;;;;7.61;nan;101100.66;5030959;28;20310;-82
2023/04/17 05:43:50;;;;;;;;;;;;;;;7.63;nan;101106.63;5031769;28;19924;-83
2023/04/17 05:46:15;;;;;;;;;;;;;;;7.71;nan;101106.03;5030785;28;19921;-82
2023/04/17 05:48:40;;;;;;;;;;;;;;;7.69;nan;101107.13;5038478;28;19913;-82
2023/04/17 05:51:05;;;;;;;;;;;;;;;7.76;nan;101106.50;5036866;28;20366;-84
2023/04/17 05:53:31;;;;;;;;;;;;;;;7.85;nan;101112.88;5040420;28;20108;-82
2023/04/17 05:55:56;;;;;;;;;;;;;;;7.88;nan;101121.34;5034767;28;19923;-84
2023/04/17 05:58:21;;;;;;;;;;;;;;;7.90;nan;101113.34;5030274;28;19967;-83
2023/04/17 06:00:46;;;;;;;;;;;;;;;7.97;nan;101114.53;5015483;28;19913;-82
2023/04/17 06:03:12;;;;;;;;;;;;;;;8.00;nan;101100.28;5026591;28;19928;-83
2023/04/17 06:05:37;;;;;;;;;;;;;;;7.98;nan;101108.31;5024095;28;20445;-82
2023/04/17 06:08:02;;;;;;;;;;;;;;;7.95;nan;101102.44;5024242;28;19917;-82
2023/04/17 06:10:28;;;;;;;;;;;;;;;7.93;nan;101112.25;5027432;28;19944;-82
2023/04/17 06:12:53;;;;;;;;;;;;;;;7.92;nan;101111.44;5029971;28;19924;-82
2023/04/17 06:15:18;;;;;;;;;;;;;;;7.88;nan;101108.19;5029350;28;19924;-81
2023/04/17 06:17:43;;;;;;;;;;;;;;;7.87;nan;101108.31;5026296;28;19921;-81
2023/04/17 06:20:10;;;;;;;;;;;;;;;7.88;nan;101108.19;5035429;28;20311;-83
2023/04/17 06:22:35;;;;;;;;;;;;;;;7.92;nan;101103.53;5030093;28;19940;-82
2023/04/17 06:25:01;;;;;;;;;;;;;;;8.05;nan;101114.75;5029490;28;19917;-81
2023/04/17 06:27:26;;;;;;;;;;;;;;;8.11;nan;101110.81;5017519;28;19918;-82
2023/04/17 06:29:51;;;;;;;;;;;;;;;8.24;nan;101114.13;5005746;28;19925;-82
2023/04/17 06:32:16;;;;;;;;;;;;;;;8.47;nan;101108.88;5014927;28;20400;-82
2023/04/17 06:34:41;;;;;;;;;;;;;;;8.73;nan;101111.19;5026955;28;19917;-82
2023/04/17 06:37:07;;;;;;;;;;;;;;;8.93;nan;101108.56;5025160;28;19964;-83
2023/04/17 06:39:33;;;;;;;;;;;;;;;9.14;nan;101115.69;5008230;28;20466;-81
2023/04/17 06:41:58;;;;;;;;;;;;;;;9.41;nan;101106.41;5010546;28;19924;-81
2023/04/17 06:44:23;;;;;;;;;;;;;;;9.55;nan;101104.25;5009504;28;19917;-82
2023/04/17 06:46:52;;;;;;;;;;;;;;;9.56;nan;101103.31;5011734;28;19929;-82
2023/04/17 06:49:17;;;;;;;;;;;;;;;9.47;nan;101112.00;5027884;28;20008;-82
2023/04/17 06:51:44;;;;;;;;;;;;;;;9.45;nan;101108.66;5010130;28;20004;-82
2023/04/17 06:54:09;;;;;;;;;;;;;;;9.47;nan;101108.53;5028085;28;19917;-82
2023/04/17 06:56:35;;;;;;;;;;;;;;;9.49;nan;101111.88;5026339;28;19928;-81
2023/04/17 06:59:00;;;;;;;;;;;;;;;9.47;nan;101109.38;5012247;28;19917;-82
2023/04/17 07:01:28;;;;;;;;;;;;;;;9.47;nan;101105.91;5009923;28;19982;-82
2023/04/17 07:03:53;;;;;;;;;;;;;;;9.41;nan;101104.59;5030428;28;19924;-81
2023/04/17 07:06:18;;;;;;;;;;;;;;;9.47;nan;101111.19;5030494;28;19916;-82
2023/04/17 07:08:43;;;;;;;;;;;;;;;9.52;nan;101120.38;5014975;28;19928;-82
2023/04/17 07:11:08;;;;;;;;;;;;;;;9.69;nan;101116.28;5028375;28;19942;-82
2023/04/17 07:13:33;;;;;;;;;;;;;;;9.84;nan;101116.75;5025573;28;20007;-82
2023/04/17 07:16:00;;;;;;;;;;;;;;;9.94;nan;101115.03;5008356;28;20366;-82
2023/04/17 07:18:25;;;;;;;;;;;;;;;10.11;nan;101125.94;5023455;28;21073;-81
2023/04/17 07:20:51;;;;;;;;;;;;;;;10.21;nan;101122.34;5022605;28;19917;-82
2023/04/17 07:23:25;;;;;;;;;;;;;;;10.32;nan;101110.84;5026583;28;19999;-82
2023/04/17 07:25:50;;;;;;;;;;;;;;;10.39;nan;101124.34;5021645;28;19917;-82
2023/04/17 07:28:16;;;;;;;;;;;;;;;10.34;nan;101114.19;5027687;28;19924;-83
2023/04/17 07:30:41;;;;;;;;;;;;;;;10.40;nan;101120.75;5012292;28;19926;-81
2023/04/17 07:33:06;;;;;;;;;;;;;;;10.49;nan;101127.88;5016388;28;19956;-82
2023/04/17 07:35:32;;;;;;;;;;;;;;;10.60;nan;101126.91;5028308;28;20012;-82
2023/04/17 07:37:59;;;;;;;;;;;;;;;10.78;nan;101125.25;5028057;28;19921;-83
2023/04/17 07:40:25;;;;;;;;;;;;;;;11.05;nan;101127.19;5013095;28;19917;-83
2023/04/17 07:42:50;;;;;;;;;;;;;;;11.37;nan;101136.66;5026815;28;19999;-83
2023/04/17 07:45:15;;;;;;;;;;;;;;;11.73;nan;101134.19;5028020;28;19918;-83
2023/04/17 07:47:40;;;;;;;;;;;;;;;11.97;nan;101133.72;5033205;28;19932;-83
2023/04/17 07:50:06;;;;;;;;;;;;;;;12.23;nan;101144.47;5028493;28;20487;-83
2023/04/17 07:52:31;;;;;;;;;;;;;;;12.24;nan;101142.66;5033364;28;19925;-83
2023/04/17 07:54:56;;;;;;;;;;;;;;;12.28;nan;101141.38;5032525;28;19959;-83
2023/04/17 07:57:25;;;;;;;;;;;;;;;12.31;nan;101149.03;5032251;28;19966;-83
2023/04/17 07:59:50;;;;;;;;;;;;;;;12.11;nan;101148.31;5023165;28;19917;-83
2023/04/17 08:02:15;;;;;;;;;;;;;;;12.21;nan;101140.31;5033720;28;19917;-83
2023/04/17 08:04:43;;;;;;;;;;;;;;;12.34;nan;101146.09;5028986;28;21024;-83
2023/04/17 08:07:09;;;;;;;;;;;;;;;12.63;nan;101142.41;5014862;28;20316;-81
2023/04/17 08:09:36;;;;;;;;;;;;;;;12.80;nan;101149.59;5033314;28;19939;-81
2023/04/17 08:12:01;;;;;;;;;;;;;;;12.93;nan;101151.84;5032272;28;19917;-83
2023/04/17 08:14:26;;;;;;;;;;;;;;;12.95;nan;101148.06;5031371;28;20264;-84
2023/04/17 08:16:51;;;;;;;;;;;;;;;13.03;nan;101151.78;5036680;28;19943;-84
2023/04/17 08:19:17;;;;;;;;;;;;;;;13.06;nan;101147.00;5035329;28;20348;-84
2023/04/17 08:21:42;;;;;;;;;;;;;;;13.17;nan;101159.19;5034889;28;19924;-83
2023/04/17 08:24:07;;;;;;;;;;;;;;;13.25;nan;101156.63;5031784;28;19964;-84
2023/04/17 08:26:32;;;;;;;;;;;;;;;12.93;nan;101155.34;5034798;28;20577;-81
2023/04/17 08:29:00;;;;;;;;;;;;;;;13.06;nan;101152.31;5017834;28;19917;-81
2023/04/17 08:31:29;;;;;;;;;;;;;;;13.04;nan;101167.56;5030350;28;20049;-82
2023/04/17 08:33:54;;;;;;;;;;;;;;;13.30;nan;101156.16;5032749;28;19990;-82
2023/04/17 08:36:19;;;;;;;;;;;;;;;13.69;nan;101155.78;5032107;28;20019;-82
2023/04/17 08:38:46;;;;;;;;;;;;;;;13.60;nan;101160.22;5035810;28;19967;-82
2023/04/17 08:41:17;;;;;;;;;;;;;;;13.56;nan;101161.50;5037066;28;19925;-81
2023/04/17 08:43:47;;;;;;;;;;;;;;;13.50;nan;101160.31;5037132;28;19917;-82
2023/04/17 08:46:13;;;;;;;;;;;;;;;13.45;nan;101161.78;5036891;28;19947;-81
2023/04/17 08:48:38;;;;;;;;;;;;;;;13.53;nan;101161.81;5032165;28;19921;-82
2023/04/17 08:51:03;;;;;;;;;;;;;;;13.75;nan;101163.13;5034083;28;20367;-80
2023/04/17 08:53:28;;;;;;;;;;;;;;;13.87;nan;101161.03;5032192;28;20436;-81
2023/04/17 08:55:53;;;;;;;;;;;;;;;14.05;nan;101164.47;5028845;28;20138;-82
2023/04/17 08:58:20;;;;;;;;;;;;;;;14.13;nan;101166.31;5014445;28;20527;-81
2023/04/17 09:00:45;;;;;;;;;;;;;;;14.05;nan;101164.47;5029601;28;19924;-81
2023/04/17 09:03:12;;;;;;;;;;;;;;;14.14;nan;101160.84;5028385;28;19921;-81
2023/04/17 09:05:38;;;;;;;;;;;;;;;14.12;nan;101169.97;5017306;28;19917;-81
2023/04/17 09:08:19;;;;;;;;;;;;;;;14.42;nan;101166.78;5028924;28;19917;-80
2023/04/17 09:10:46;;;;;;;;;;;;;;;14.17;nan;101163.19;5029385;28;19970;-82
2023/04/17 09:13:13;;;;;;;;;;;;;;;14.05;nan;101164.47;5012252;28;19920;-81
2023/04/17 09:15:39;;;;;;;;;;;;;;;13.80;nan;101160.84;5028913;28;19944;-80
2023/04/17 09:18:04;;;;;;;;;;;;;;;13.65;nan;101162.41;5028309;28;19925;-81
2023/04/17 09:20:29;;;;;;;;;;;;;;;13.58;nan;101156.88;5010535;28;19928;-81
2023/04/17 09:22:59;;;;;;;;;;;;;;;13.49;nan;101169.28;5026740;28;19979;-81
2023/04/17 09:25:26;;;;;;;;;;;;;;;13.35;nan;101165.34;5026020;28;19917;-81
2023/04/17 09:27:52;;;;;;;;;;;;;;;13.25;nan;101167.25;5016408;28;20542;-81
2023/04/17 09:30:17;;;;;;;;;;;;;;;13.14;nan;101165.66;5024710;28;19928;-82
2023/04/17 09:32:42;;;;;;;;;;;;;;;13.06;nan;101160.28;5012090;28;19923;-82
2023/04/17 09:35:07;;;;;;;;;;;;;;;13.06;nan;101152.31;5032111;28;19917;-82
2023/04/17 09:37:53;;;;;;;;;;;;;;;13.07;nan;101169.06;5030286;28;19929;-81
2023/04/17 09:40:19;;;;;;;;;;;;;;;13.11;nan;101170.44;5026790;28;19924;-81
2023/04/17 09:42:55;;;;;;;;;;;;;;;12.88;nan;101164.75;5030746;28;19970;-82
2023/04/17 09:45:21;;;;;;;;;;;;;;;12.97;nan;101169.16;5026152;28;19967;-82
2023/04/17 09:47:46;;;;;;;;;;;;;;;12.83;nan;101174.97;5027954;28;19980;-81
2023/04/17 09:50:15;;;;;;;;;;;;;;;12.81;nan;101172.47;5026192;28;20294;-80
2023/04/17 09:52:40;;;;;;;;;;;;;;;12.81;nan;101183.09;5028675;28;19924;-81
2023/04/17 09:55:06;;;;;;;;;;;;;;;12.92;nan;101177.56;5011870;28;20383;-81
2023/04/17 09:57:32;;;;;;;;;;;;;;;12.85;nan;101170.38;5031091;28;19925;-81
2023/04/17 10:00:00;;;;;;;;;;;;;;;12.94;nan;101177.41;5028401;28;19920;-80
2023/04/17 10:02:25;;;;;;;;;;;;;;;13.01;nan;101178.47;5027754;28;19971;-80
2023/04/17 10:04:51;;;;;;;;;;;;;;;12.94;nan;101180.91;5031401;28;19917;-80
2023/04/17 10:07:17;;;;;;;;;;;;;;;12.95;nan;101179.09;5030300;28;19975;-80
2023/04/17 10:09:45;;;;;;;;;;;;;;;12.96;nan;101181.56;5031495;28;20345;-80
2023/04/17 10:12:13;;;;;;;;;;;;;;;12.92;nan;101179.41;5027117;28;20283;-81
2023/04/17 10:14:41;;;;;;;;;;;;;;;12.64;nan;101183.91;5027099;28;19917;-81
2023/04/17 10:17:33;;;;;;;;;;;;;;;12.64;nan;101173.28;5014524;28;21102;-81
2023/04/17 10:20:30;;;;;;;;;;;;;;;12.88;nan;101173.53;5026550;28;19924;-81
2023/04/17 10:22:56;;;;;;;;;;;;;;;13.13;nan;101171.09;5006468;28;20282;-81
2023/04/17 10:25:25;;;;;;;;;;;;;;;13.02;nan;101169.53;5026149;28;19920;-80
2023/04/17 10:27:52;;;;;;;;;;;;;;;13.12;nan;101164.97;5013691;28;20441;-80
2023/04/17 10:30:20;;;;;;;;;;;;;;;13.12;nan;101166.78;5030666;28;19986;-81
2023/04/17 10:33:05;;;;;;;;;;;;;;;13.21;nan;101165.88;5033841;28;19924;-80
2023/04/17 10:35:34;;;;;;;;;;;;;;;13.40;nan;101159.59;5029760;28;19917;-80
2023/04/17 10:38:06;;;;;;;;;;;;;;;13.31;nan;101155.19;5031303;28;19921;-80
2023/04/17 10:40:33;;;;;;;;;;;;;;;13.52;nan;101152.19;5023584;28;20342;-80
2023/04/17 10:43:12;;;;;;;;;;;;;;;13.51;nan;101150.50;5029970;28;19968;-80
2023/04/17 10:45:55;;;;;;;;;;;;;;;13.90;nan;101150.09;5031085;28;20382;-81
2023/04/17 10:48:34;;;;;;;;;;;;;;;13.97;nan;101151.97;5031525;28;19984;-81
2023/04/17 10:51:20;;;;;;;;;;;;;;;13.67;nan;101147.13;5027030;28;19929;-81
2023/04/17 10:53:45;;;;;;;;;;;;;;;14.15;nan;101138.56;5023948;28;20478;-80
2023/04/17 10:56:16;;;;;;;;;;;;;;;14.29;nan;101149.59;5028231;28;20020;-81
2023/04/17 10:58:55;;;;;;;;;;;;;;;14.24;nan;101153.56;5032818;28;19917;-81
2023/04/17 11:01:22;;;;;;;;;;;;;;;14.01;nan;101147.16;5027712;28;19917;-81
2023/04/17 11:03:48;;;;;;;;;;;;;;;14.06;nan;101147.50;5030930;28;19966;-81
2023/04/17 11:06:13;;;;;;;;;;;;;;;14.16;nan;101142.91;5033969;28;19973;-80
2023/04/17 11:08:38;;;;;;;;;;;;;;;14.17;nan;101141.06;5037882;28;19948;-80
2023/04/17 11:11:03;;;;;;;;;;;;;;;14.75;nan;101134.94;5038271;28;19917;-80
2023/04/17 11:13:32;;;;;;;;;;;;;;;14.75;nan;101129.63;5040388;28;20678;-80
2023/04/17 11:16:04;;;;;;;;;;;;;;;15.13;nan;101132.63;5038940;28;19973;-81
2023/04/17 11:18:30;;;;;;;;;;;;;;;15.34;nan;101133.97;5035927;28;19917;-80
2023/04/17 11:20:56;;;;;;;;;;;;;;;15.45;nan;101136.28;5037936;28;19993;-81
2023/04/17 11:23:21;;;;;;;;;;;;;;;15.63;nan;101128.09;5035466;28;19917;-82
2023/04/17 11:25:46;;;;;;;;;;;;;;;15.92;nan;101133.72;5031913;28;19921;-81
2023/04/17 11:28:11;;;;;;;;;;;;;;;16.59;nan;101145.75;5036584;28;20067;-81
2023/04/17 11:30:41;;;;;;;;;;;;;;;16.88;nan;101138.91;5038583;28;19921;-80
2023/04/17 11:33:07;;;;;;;;;;;;;;;16.79;nan;101134.63;5036119;28;20172;-82
2023/04/17 11:35:33;;;;;;;;;;;;;;;16.79;nan;101138.13;5017692;28;19948;-81
2023/04/17 11:38:12;;;;;;;;;;;;;;;16.74;nan;101140.47;5033113;28;19921;-81
2023/04/17 11:40:41;;;;;;;;;;;;;;;16.98;nan;101144.84;5033063;28;20299;-81
2023/04/17 11:43:06;;;;;;;;;;;;;;;16.37;nan;101142.00;5035097;28;19917;-81
2023/04/17 11:45:33;;;;;;;;;;;;;;;16.27;nan;101146.75;5018824;28;19940;-80
2023/04/17 11:47:58;;;;;;;;;;;;;;;16.28;nan;101143.91;5020536;28;19956;-81
2023/04/17 11:50:27;;;;;;;;;;;;;;;15.66;nan;101146.41;5035108;28;19924;-81
2023/04/17 11:52:55;;;;;;;;;;;;;;;15.26;nan;101145.47;5017842;28;20016;-81
2023/04/17 11:55:20;;;;;;;;;;;;;;;14.80;nan;101142.44;5038313;28;19918;-82
2023/04/17 11:57:49;;;;;;;;;;;;;;;14.78;nan;101139.13;5019799;28;19986;-81
2023/04/17 12:00:15;;;;;;;;;;;;;;;14.50;nan;101146.50;5033567;28;19948;-81
2023/04/17 12:02:40;;;;;;;;;;;;;;;14.36;nan;101148.78;5036712;28;20450;-81
2023/04/17 12:05:12;;;;;;;;;;;;;;;14.32;nan;101146.63;5034636;28;20384;-81
2023/04/17 12:07:37;;;;;;;;;;;;;;;14.60;nan;101142.72;5031279;28;20290;-81
2023/04/17 12:10:03;;;;;;;;;;;;;;;14.70;nan;101147.91;5019167;28;19917;-81
2023/04/17 12:12:29;;;;;;;;;;;;;;;14.32;nan;101151.94;5028462;28;21110;-81
2023/04/17 12:14:54;;;;;;;;;;;;;;;14.28;nan;101146.13;5033240;28;19924;-81
2023/04/17 12:17:20;;;;;;;;;;;;;;;14.32;nan;101141.28;5031574;28;19929;-83
2023/04/17 12:19:45;;;;;;;;;;;;;;;14.34;nan;101145.47;5033893;28;19917;-82
2023/04/17 12:22:10;;;;;;;;;;;;;;;14.14;nan;101142.22;5029163;28;19917;-82
2023/04/17 12:24:36;;;;;;;;;;;;;;;14.07;nan;101146.53;5033578;28;20069;-81
2023/04/17 12:27:02;;;;;;;;;;;;;;;13.77;nan;101140.72;5033014;28;20010;-81
2023/04/17 12:29:27;;;;;;;;;;;;;;;13.75;nan;101136.53;5029941;28;19917;-82
2023/04/17 12:31:53;;;;;;;;;;;;;;;13.83;nan;101139.25;5028397;28;19917;-82
2023/04/17 12:34:18;;;;;;;;;;;;;;;13.91;nan;101141.13;5035340;28;19935;-80
2023/04/17 12:36:43;;;;;;;;;;;;;;;13.92;nan;101137.47;5027952;28;20271;-80
2023/04/17 12:39:08;;;;;;;;;;;;;;;13.68;nan;101124.88;5028024;28;20287;-80
2023/04/17 12:41:33;;;;;;;;;;;;;;;13.68;nan;101128.38;5028626;28;19921;-81
2023/04/17 12:44:01;;;;;;;;;;;;;;;13.54;nan;101128.97;5027163;28;19983;-81
2023/04/17 12:46:27;;;;;;;;;;;;;;;13.52;nan;101129.13;5026832;28;19925;-81
2023/04/17 12:48:57;;;;;;;;;;;;;;;13.67;nan;101129.38;5023687;28;19936;-81
2023/04/17 12:51:22;;;;;;;;;;;;;;;13.49;nan;101131.22;5029281;28;19920;-82
2023/04/17 12:53:47;;;;;;;;;;;;;;;13.41;nan;101126.69;5011709;28;20169;-81
2023/04/17 12:56:13;;;;;;;;;;;;;;;13.37;nan;101120.88;5026969;28;19917;-81
2023/04/17 12:58:38;;;;;;;;;;;;;;;13.42;nan;101123.06;5025076;28;20621;-81